Time;durP1;ratioP1;P1;durP2;ratioP2;P2;SDS_P1;SDS_P2;PMS_P1;PMS_P2;Temp;Humidity;BMP_temperature;BMP_pressure;BME280_temperature;BME280_humidity;BME280_pressure;Samples;Min_cycle;Max_cycle;Signal;HPM_P1;HPM_P2
2021/06/20 00:00:27;;;;;;;17.23;13.93;;;18.70;99.90;;;;;;5016471;28;20172;-79
2021/06/20 00:02:53;;;;;;;16.10;14.43;;;18.70;99.90;;;;;;5016278;28;20215;-79
2021/06/20 00:05:24;;;;;;;19.15;15.00;;;18.60;99.90;;;;;;5017518;28;20196;-79
2021/06/20 00:07:51;;;;;;;17.02;15.30;;;18.70;99.90;;;;;;5016461;28;20248;-79
2021/06/20 00:10:20;;;;;;;19.42;15.75;;;18.70;99.90;;;;;;5016222;28;20244;-80
2021/06/20 00:12:47;;;;;;;17.70;15.80;;;18.80;99.90;;;;;;5036528;28;20505;-79
2021/06/20 00:15:15;;;;;;;18.98;15.27;;;18.80;99.90;;;;;;5036344;28;20175;-79
2021/06/20 00:17:42;;;;;;;19.92;15.63;;;18.80;99.90;;;;;;5034170;28;20576;-79
2021/06/20 00:20:09;;;;;;;16.88;14.82;;;18.80;99.90;;;;;;5030076;28;20180;-79
2021/06/20 00:22:35;;;;;;;17.80;15.15;;;18.70;99.90;;;;;;5030770;28;20571;-79
2021/06/20 00:25:02;;;;;;;19.38;16.10;;;18.70;99.90;;;;;;5016225;28;20157;-79
2021/06/20 00:27:27;;;;;;;20.70;16.05;;;18.70;99.90;;;;;;5017063;28;20256;-79
2021/06/20 00:29:53;;;;;;;25.55;16.33;;;18.70;99.90;;;;;;5016025;28;20239;-79
2021/06/20 00:32:18;;;;;;;19.45;17.35;;;18.70;99.90;;;;;;5015735;28;20227;-79
2021/06/20 00:34:44;;;;;;;20.75;17.08;;;18.60;99.90;;;;;;5015882;28;20191;-79
2021/06/20 00:37:10;;;;;;;20.63;17.85;;;18.60;99.90;;;;;;5030604;28;20168;-79
2021/06/20 00:39:35;;;;;;;26.30;19.63;;;18.60;99.90;;;;;;5034565;28;20247;-79
2021/06/20 00:42:01;;;;;;;27.40;19.45;;;18.70;99.90;;;;;;5016788;28;20249;-79
2021/06/20 00:44:27;;;;;;;28.75;20.58;;;18.90;99.90;;;;;;5015783;28;20243;-79
2021/06/20 00:46:52;;;;;;;28.77;21.30;;;18.90;99.90;;;;;;5015569;28;20525;-79
2021/06/20 00:49:18;;;;;;;33.03;21.55;;;19.00;99.90;;;;;;4998968;28;20697;-78
2021/06/20 00:51:45;;;;;;;30.90;21.48;;;19.10;99.90;;;;;;5015354;28;20230;-78
2021/06/20 00:54:11;;;;;;;32.15;22.00;;;19.30;99.90;;;;;;5015710;28;20161;-79
2021/06/20 00:56:38;;;;;;;31.90;21.30;;;19.30;99.90;;;;;;5015377;28;20625;-79
2021/06/20 00:59:04;;;;;;;32.97;22.77;;;19.40;99.90;;;;;;5016393;28;20176;-79
2021/06/20 01:01:31;;;;;;;30.15;21.10;;;19.40;99.90;;;;;;5015296;28;20193;-79
2021/06/20 01:03:57;;;;;;;28.88;21.38;;;19.50;99.90;;;;;;5015304;28;20685;-78
2021/06/20 01:06:23;;;;;;;23.70;20.42;;;19.40;99.90;;;;;;5015213;28;20247;-79
2021/06/20 01:08:49;;;;;;;22.90;19.63;;;19.40;99.90;;;;;;5014770;28;20161;-79
2021/06/20 01:11:14;;;;;;;23.95;19.13;;;19.10;99.90;;;;;;5022099;28;20211;-79
2021/06/20 01:13:40;;;;;;;26.88;20.50;;;19.10;99.90;;;;;;5035131;28;20171;-79
2021/06/20 01:16:06;;;;;;;28.13;21.48;;;19.20;99.90;;;;;;5034883;28;20259;-79
2021/06/20 01:18:31;;;;;;;27.25;21.38;;;19.30;99.90;;;;;;5016395;28;20176;-79
2021/06/20 01:20:57;;;;;;;29.38;21.85;;;19.40;99.90;;;;;;5015982;28;20181;-79
2021/06/20 01:23:23;;;;;;;26.90;20.42;;;19.40;99.90;;;;;;5015147;28;20219;-79
2021/06/20 01:25:51;;;;;;;29.50;20.92;;;19.40;99.90;;;;;;5014799;28;20169;-79
2021/06/20 01:28:17;;;;;;;29.38;21.13;;;19.40;99.90;;;;;;5014828;28;20691;-79
2021/06/20 01:30:44;;;;;;;25.02;20.42;;;19.40;99.90;;;;;;5015753;28;20166;-78
2021/06/20 01:33:13;;;;;;;25.75;19.60;;;19.30;99.90;;;;;;5013590;28;20169;-79
2021/06/20 01:35:39;;;;;;;25.10;20.75;;;19.40;99.90;;;;;;5014150;28;20499;-79
2021/06/20 01:38:07;;;;;;;33.08;21.17;;;19.40;99.90;;;;;;5014821;28;20160;-79
2021/06/20 01:40:33;;;;;;;30.00;21.52;;;19.40;99.90;;;;;;5014761;28;20535;-79
2021/06/20 01:42:59;;;;;;;24.52;19.95;;;19.50;99.90;;;;;;5045848;28;20240;-79
2021/06/20 01:45:26;;;;;;;27.63;20.48;;;19.50;99.90;;;;;;5014588;28;20498;-78
2021/06/20 01:47:55;;;;;;;27.73;22.08;;;19.40;99.90;;;;;;5046358;28;20521;-79
2021/06/20 01:50:21;;;;;;;32.33;21.77;;;19.40;99.90;;;;;;5013501;28;20177;-79
2021/06/20 01:52:47;;;;;;;34.38;22.52;;;19.50;99.90;;;;;;5015643;28;20255;-79
2021/06/20 01:55:15;;;;;;;36.28;24.40;;;19.50;99.90;;;;;;5014151;28;20330;-79
2021/06/20 01:57:42;;;;;;;34.40;21.90;;;19.60;99.90;;;;;;5014344;28;20632;-78
2021/06/20 02:00:13;;;;;;;39.92;24.75;;;19.80;99.90;;;;;;5014294;28;20157;-79
2021/06/20 02:02:40;;;;;;;39.63;25.30;;;19.80;99.90;;;;;;5015008;28;20192;-80
2021/06/20 02:05:06;;;;;;;40.60;25.75;;;19.70;99.90;;;;;;5013013;28;20632;-79
2021/06/20 02:07:35;;;;;;;36.40;25.73;;;19.60;99.90;;;;;;5012953;28;20699;-79
2021/06/20 02:10:00;;;;;;;36.40;26.05;;;19.60;99.90;;;;;;4996858;28;20173;-79
2021/06/20 02:12:26;;;;;;;43.13;27.25;;;19.50;99.90;;;;;;5014441;28;20311;-79
2021/06/20 02:14:53;;;;;;;40.65;27.33;;;19.50;99.90;;;;;;5028048;28;20170;-80
2021/06/20 02:17:25;;;;;;;38.88;26.90;;;19.50;99.90;;;;;;5033380;28;20169;-79
2021/06/20 02:19:52;;;;;;;40.28;28.17;;;19.40;99.90;;;;;;5033824;28;20160;-79
2021/06/20 02:22:18;;;;;;;46.53;28.48;;;19.40;99.90;;;;;;5033606;28;20286;-79
2021/06/20 02:24:44;;;;;;;45.70;28.70;;;19.40;99.90;;;;;;5022868;28;20259;-79
2021/06/20 02:27:12;;;;;;;47.50;28.75;;;19.40;99.90;;;;;;5013799;28;20244;-78
2021/06/20 02:29:38;;;;;;;47.05;28.90;;;19.40;99.90;;;;;;5013874;28;20589;-78
2021/06/20 02:32:04;;;;;;;39.10;27.17;;;19.30;99.90;;;;;;5013923;28;20169;-79
2021/06/20 02:34:30;;;;;;;40.22;27.42;;;19.30;99.90;;;;;;5014930;28;20271;-79
2021/06/20 02:36:56;;;;;;;42.03;28.08;;;19.20;99.90;;;;;;5012577;28;20653;-79
2021/06/20 02:39:22;;;;;;;42.45;26.88;;;19.20;99.90;;;;;;5013867;28;20617;-79
2021/06/20 02:41:50;;;;;;;44.33;27.77;;;19.20;99.90;;;;;;4996482;28;20213;-79
2021/06/20 02:44:16;;;;;;;42.47;27.58;;;19.20;99.90;;;;;;5012388;28;20169;-79
2021/06/20 02:46:42;;;;;;;44.38;28.08;;;19.20;99.90;;;;;;5029693;28;20621;-79
2021/06/20 02:49:08;;;;;;;46.83;29.20;;;19.30;99.90;;;;;;5012572;28;20172;-79
2021/06/20 02:51:33;;;;;;;52.95;30.80;;;19.30;99.90;;;;;;5012130;28;20259;-78
2021/06/20 02:53:59;;;;;;;48.05;30.60;;;19.30;99.90;;;;;;5013607;28;20217;-79
2021/06/20 02:56:25;;;;;;;48.00;29.25;;;19.40;99.90;;;;;;5014500;28;20192;-79
2021/06/20 02:58:50;;;;;;;49.85;31.52;;;19.30;99.90;;;;;;5012055;28;20255;-79
2021/06/20 03:01:16;;;;;;;51.95;31.40;;;19.30;99.90;;;;;;5013186;28;20204;-79
2021/06/20 03:03:42;;;;;;;57.67;32.65;;;19.20;99.90;;;;;;5013556;28;20175;-79
2021/06/20 03:06:07;;;;;;;55.58;32.45;;;19.20;99.90;;;;;;5013275;28;20160;-80
2021/06/20 03:08:33;;;;;;;51.28;32.95;;;19.10;99.90;;;;;;5014374;28;20227;-79
2021/06/20 03:10:59;;;;;;;56.20;32.65;;;19.10;99.90;;;;;;5013422;28;20509;-79
2021/06/20 03:13:25;;;;;;;54.08;31.67;;;19.20;99.90;;;;;;5013333;28;20660;-79
2021/06/20 03:15:50;;;;;;;55.25;33.92;;;19.30;99.90;;;;;;5045276;28;20169;-79
2021/06/20 03:18:16;;;;;;;53.35;32.58;;;19.30;99.90;;;;;;5046073;28;20204;-79
2021/06/20 03:20:42;;;;;;;55.95;34.00;;;19.20;99.90;;;;;;5013504;28;20251;-80
2021/06/20 03:23:10;;;;;;;55.05;33.13;;;19.30;99.90;;;;;;5013144;28;20227;-79
2021/06/20 03:25:38;;;;;;;53.78;32.33;;;19.30;99.90;;;;;;5045013;28;20201;-79
2021/06/20 03:28:04;;;;;;;55.03;32.78;;;19.20;99.90;;;;;;5045837;28;20172;-80
2021/06/20 03:30:29;;;;;;;53.42;33.00;;;19.20;99.90;;;;;;5015660;28;20180;-80
2021/06/20 03:32:55;;;;;;;49.75;32.65;;;19.10;99.90;;;;;;5032348;28;20176;-80
2021/06/20 03:35:20;;;;;;;57.88;34.55;;;19.10;99.90;;;;;;5031794;28;20502;-79
2021/06/20 03:37:46;;;;;;;55.50;33.47;;;19.10;99.90;;;;;;5033205;28;20167;-80
2021/06/20 03:40:12;;;;;;;54.50;33.97;;;19.10;99.90;;;;;;5031109;28;20179;-80
2021/06/20 03:42:38;;;;;;;57.22;33.63;;;19.10;99.90;;;;;;5032963;28;20196;-80
2021/06/20 03:45:07;;;;;;;58.00;34.50;;;19.10;99.90;;;;;;5033031;28;20509;-79
2021/06/20 03:47:34;;;;;;;60.22;36.05;;;19.10;99.90;;;;;;5032878;28;20182;-80
2021/06/20 03:49:59;;;;;;;59.05;34.17;;;19.10;99.90;;;;;;5031241;28;20187;-79
2021/06/20 03:52:25;;;;;;;64.55;34.30;;;19.10;99.90;;;;;;5032884;28;20564;-79
2021/06/20 03:54:52;;;;;;;52.42;33.10;;;19.00;99.90;;;;;;5032826;28;20251;-79
2021/06/20 03:57:19;;;;;;;58.10;32.25;;;19.00;99.90;;;;;;5032643;28;20164;-80
2021/06/20 03:59:46;;;;;;;58.50;35.33;;;19.00;99.90;;;;;;5033828;28;20188;-80
2021/06/20 04:02:12;;;;;;;52.45;34.28;;;19.00;99.90;;;;;;5045801;28;20208;-80
2021/06/20 04:04:40;;;;;;;54.63;33.40;;;18.90;99.90;;;;;;5036333;28;20218;-79
2021/06/20 04:07:07;;;;;;;55.20;33.15;;;19.00;99.90;;;;;;5036249;28;20156;-79
2021/06/20 04:09:32;;;;;;;59.72;33.67;;;19.10;99.90;;;;;;5036195;28;20191;-80
2021/06/20 04:11:58;;;;;;;57.45;32.72;;;19.10;99.90;;;;;;5032954;28;20231;-80
2021/06/20 04:14:24;;;;;;;55.08;30.83;;;19.20;99.90;;;;;;5034421;28;20200;-80
2021/06/20 04:16:50;;;;;;;59.95;33.25;;;19.20;99.90;;;;;;5036007;28;20222;-81
2021/06/20 04:19:16;;;;;;;50.17;29.63;;;19.20;99.90;;;;;;5014844;28;20172;-79
2021/06/20 04:21:42;;;;;;;55.83;32.10;;;19.10;99.90;;;;;;5017315;28;20192;-79
2021/06/20 04:24:08;;;;;;;50.03;30.60;;;19.30;99.90;;;;;;5016106;28;20172;-80
2021/06/20 04:26:34;;;;;;;57.03;31.15;;;19.30;99.90;;;;;;5014824;28;20267;-80
2021/06/20 04:29:00;;;;;;;47.97;29.77;;;19.30;99.90;;;;;;5015876;28;20169;-79
2021/06/20 04:31:26;;;;;;;57.60;31.92;;;19.40;99.90;;;;;;5018531;28;20311;-80
2021/06/20 04:33:51;;;;;;;52.50;31.15;;;19.40;99.90;;;;;;4999507;28;20173;-79
2021/06/20 04:36:17;;;;;;;50.20;31.40;;;19.50;99.90;;;;;;5014771;28;20173;-79
2021/06/20 04:38:43;;;;;;;52.45;31.83;;;19.50;99.90;;;;;;5015805;28;20161;-80
2021/06/20 04:41:13;;;;;;;49.25;32.35;;;19.60;99.90;;;;;;5016784;28;20184;-81
2021/06/20 04:46:34;;;;;;;48.75;31.10;;;19.70;99.90;;;;;;5035679;28;20163;-80
2021/06/20 04:49:07;;;;;;;52.25;31.52;;;19.80;99.90;;;;;;5034299;28;20257;-80
2021/06/20 04:51:35;;;;;;;58.63;30.52;;;19.90;99.90;;;;;;5035666;28;20168;-80
2021/06/20 04:54:01;;;;;;;48.15;30.83;;;20.10;99.90;;;;;;5033789;28;20502;-80
2021/06/20 04:56:28;;;;;;;49.30;31.38;;;19.90;99.90;;;;;;5035117;28;20163;-80
2021/06/20 04:58:56;;;;;;;48.40;29.80;;;19.90;99.90;;;;;;5035313;28;20164;-80
2021/06/20 05:01:22;;;;;;;54.05;31.52;;;20.00;99.90;;;;;;5034015;28;20681;-80
2021/06/20 05:03:49;;;;;;;53.83;31.30;;;20.10;99.90;;;;;;5034361;28;20160;-80
2021/06/20 05:06:15;;;;;;;49.65;29.40;;;20.20;99.90;;;;;;5033382;28;20221;-80
2021/06/20 05:08:40;;;;;;;47.47;30.90;;;20.40;99.90;;;;;;5035461;28;20168;-79
2021/06/20 05:11:06;;;;;;;45.58;29.95;;;20.40;99.90;;;;;;5016223;28;20643;-80
2021/06/20 05:13:32;;;;;;;44.05;28.92;;;20.40;99.90;;;;;;5050433;28;20242;-80
2021/06/20 05:15:58;;;;;;;47.40;29.65;;;20.40;99.90;;;;;;5032029;28;20164;-80
2021/06/20 05:18:24;;;;;;;44.75;28.95;;;20.40;99.90;;;;;;5034857;28;20164;-82
2021/06/20 05:20:50;;;;;;;50.90;30.40;;;20.40;99.90;;;;;;5033799;28;20191;-80
2021/06/20 05:23:15;;;;;;;43.85;28.58;;;20.30;99.90;;;;;;5032721;28;20282;-80
2021/06/20 05:25:41;;;;;;;47.10;29.48;;;20.30;99.90;;;;;;5033609;28;20213;-81
2021/06/20 05:28:07;;;;;;;39.38;27.48;;;20.50;99.90;;;;;;5034785;28;20163;-80
2021/06/20 05:30:33;;;;;;;41.67;27.20;;;20.60;99.90;;;;;;5032642;28;20616;-80
2021/06/20 05:32:58;;;;;;;40.65;27.55;;;20.70;99.90;;;;;;5013437;28;20168;-81
2021/06/20 05:35:24;;;;;;;42.28;24.92;;;20.80;99.90;;;;;;5014553;28;20180;-81
2021/06/20 05:37:50;;;;;;;35.78;24.65;;;21.40;99.90;;;;;;5013568;28;20164;-81
2021/06/20 05:40:15;;;;;;;35.72;24.35;;;22.00;99.90;;;;;;5013584;28;20222;-80
2021/06/20 05:42:41;;;;;;;35.15;24.17;;;22.10;99.90;;;;;;5030891;28;20215;-80
2021/06/20 05:45:08;;;;;;;38.13;25.92;;;22.00;99.90;;;;;;5032730;28;20631;-80
2021/06/20 05:47:33;;;;;;;49.03;25.88;;;21.90;99.90;;;;;;5049607;28;20174;-81
2021/06/20 05:49:59;;;;;;;34.30;24.83;;;21.70;99.90;;;;;;5032735;28;20169;-81
2021/06/20 05:52:25;;;;;;;38.63;26.23;;;21.60;99.90;;;;;;5034389;28;20642;-81
2021/06/20 05:54:51;;;;;;;36.95;25.30;;;21.70;99.90;;;;;;5015966;28;20523;-81
2021/06/20 05:57:17;;;;;;;37.25;23.38;;;21.80;99.90;;;;;;4996739;28;20200;-80
2021/06/20 05:59:43;;;;;;;31.70;23.50;;;21.80;99.90;;;;;;5014122;28;20511;-81
2021/06/20 06:02:09;;;;;;;35.17;22.25;;;21.80;99.90;;;;;;5029442;28;20200;-81
2021/06/20 06:04:34;;;;;;;38.05;22.88;;;21.80;99.90;;;;;;5014218;28;20176;-81
2021/06/20 06:07:00;;;;;;;31.88;21.60;;;21.90;99.90;;;;;;5014161;28;20514;-82
2021/06/20 06:09:26;;;;;;;23.90;19.48;;;22.20;99.90;;;;;;5014271;28;20176;-83
2021/06/20 06:11:52;;;;;;;21.38;17.92;;;23.20;99.90;;;;;;5012727;28;20275;-80
2021/06/20 06:14:18;;;;;;;21.55;17.75;;;24.00;99.90;;;;;;5012996;28;20164;-80
2021/06/20 06:16:44;;;;;;;18.42;15.50;;;25.00;99.90;;;;;;5013713;28;20255;-81
2021/06/20 06:19:10;;;;;;;15.73;13.73;;;26.00;99.90;;;;;;5012825;28;20218;-81
2021/06/20 06:21:36;;;;;;;14.77;13.00;;;26.90;99.90;;;;;;5012356;28;20544;-81
2021/06/20 06:24:03;;;;;;;14.93;12.00;;;27.70;99.90;;;;;;5026325;28;20199;-82
2021/06/20 06:26:29;;;;;;;14.48;11.00;;;28.40;99.90;;;;;;5033448;28;20214;-82
2021/06/20 06:28:54;;;;;;;13.45;9.55;;;28.00;99.90;;;;;;5032227;28;20202;-81
2021/06/20 06:31:20;;;;;;;21.50;11.82;;;27.10;99.90;;;;;;5022922;28;20176;-82
2021/06/20 06:33:46;;;;;;;10.68;9.63;;;26.40;99.90;;;;;;5019632;28;20601;-81
2021/06/20 06:36:11;;;;;;;14.80;8.98;;;26.10;99.90;;;;;;5033540;28;20164;-80
2021/06/20 06:38:37;;;;;;;17.40;7.82;;;26.20;99.90;;;;;;5032029;28;20497;-81
2021/06/20 06:41:03;;;;;;;12.30;7.25;;;27.00;99.90;;;;;;5033484;28;20171;-81
2021/06/20 06:43:29;;;;;;;13.23;5.97;;;27.10;99.90;;;;;;5015508;28;20302;-80
2021/06/20 06:45:54;;;;;;;6.53;5.38;;;26.30;99.90;;;;;;5033345;28;20162;-81
2021/06/20 06:48:20;;;;;;;13.75;5.57;;;27.20;99.90;;;;;;5028815;28;20509;-81
2021/06/20 06:50:46;;;;;;;9.13;4.90;;;27.00;99.90;;;;;;5012429;28;20172;-81
2021/06/20 06:53:12;;;;;;;10.02;4.65;;;26.80;99.90;;;;;;5018170;28;20176;-80
2021/06/20 06:55:38;;;;;;;7.10;4.32;;;27.50;99.90;;;;;;5033338;28;20163;-81
2021/06/20 06:58:03;;;;;;;7.22;3.20;;;27.20;99.90;;;;;;5022984;28;20184;-79
2021/06/20 07:00:29;;;;;;;7.82;3.15;;;26.20;99.90;;;;;;5015689;28;21353;-79
2021/06/20 07:02:55;;;;;;;10.10;3.00;;;25.50;99.90;;;;;;5048265;28;20210;-80
2021/06/20 07:05:21;;;;;;;2.63;2.20;;;25.40;99.90;;;;;;5033433;28;20160;-80
2021/06/20 07:07:47;;;;;;;5.20;1.90;;;26.10;99.90;;;;;;5033258;28;20217;-81
2021/06/20 07:10:13;;;;;;;2.72;1.70;;;27.50;99.90;;;;;;5030312;28;20180;-80
2021/06/20 07:12:39;;;;;;;2.08;1.88;;;29.00;99.90;;;;;;5032868;28;20233;-80
2021/06/20 07:15:05;;;;;;;2.13;1.55;;;30.10;99.90;;;;;;5048276;28;20541;-81
2021/06/20 07:17:35;;;;;;;1.85;1.40;;;30.90;99.90;;;;;;5048635;28;20172;-81
2021/06/20 07:20:03;;;;;;;1.40;1.13;;;30.40;99.90;;;;;;5031681;28;20160;-80
2021/06/20 07:22:29;;;;;;;6.18;1.23;;;31.70;99.90;;;;;;4992519;28;20197;-81
2021/06/20 07:24:55;;;;;;;5.30;1.40;;;32.80;99.90;;;;;;5008806;28;20180;-80
2021/06/20 07:27:21;;;;;;;6.10;1.50;;;33.10;99.90;;;;;;4992404;28;20169;-81
2021/06/20 07:29:48;;;;;;;2.50;0.93;;;33.00;99.90;;;;;;5008565;28;20578;-81
2021/06/20 07:32:14;;;;;;;3.72;1.38;;;31.80;99.90;;;;;;5029747;28;20175;-80
2021/06/20 07:34:40;;;;;;;3.60;1.60;;;31.30;99.90;;;;;;5035045;28;20525;-78
2021/06/20 07:37:05;;;;;;;3.05;1.40;;;31.00;99.90;;;;;;5036870;28;20167;-78
2021/06/20 07:39:31;;;;;;;2.45;0.90;;;31.30;99.90;;;;;;5035468;28;20191;-78
2021/06/20 07:41:58;;;;;;;4.78;0.80;;;30.40;99.90;;;;;;5050192;28;20281;-78
2021/06/20 07:44:24;;;;;;;2.92;0.73;;;30.70;99.90;;;;;;5036775;28;20623;-78
2021/06/20 07:46:50;;;;;;;2.50;1.00;;;31.50;99.90;;;;;;5052115;28;20164;-78
2021/06/20 07:49:16;;;;;;;2.58;1.00;;;32.40;99.90;;;;;;5034788;28;20255;-80
2021/06/20 07:51:42;;;;;;;2.20;0.70;;;33.60;99.90;;;;;;5034625;28;20165;-78
2021/06/20 07:54:08;;;;;;;1.98;0.80;;;33.70;99.90;;;;;;5036641;28;20171;-79
2021/06/20 07:56:34;;;;;;;3.85;0.70;;;33.70;99.90;;;;;;5036292;28;20525;-78
2021/06/20 07:58:59;;;;;;;2.35;0.90;;;33.60;99.90;;;;;;5036180;28;20190;-78
2021/06/20 08:01:25;;;;;;;1.80;0.80;;;33.20;99.90;;;;;;5040613;28;20583;-78
2021/06/20 08:03:51;;;;;;;1.80;0.73;;;32.70;99.90;;;;;;5016650;28;20173;-79
2021/06/20 08:06:16;;;;;;;1.20;0.80;;;30.40;99.90;;;;;;5018985;28;20172;-79
2021/06/20 08:08:42;;;;;;;2.38;0.85;;;28.70;99.90;;;;;;5018106;28;20547;-80
2021/06/20 08:11:08;;;;;;;3.33;1.13;;;28.00;99.90;;;;;;5014973;28;20184;-79
2021/06/20 08:13:33;;;;;;;0.65;0.65;;;29.60;99.90;;;;;;5016301;28;20164;-79
2021/06/20 08:15:59;;;;;;;1.75;0.70;;;30.20;99.90;;;;;;5035626;28;20217;-79
2021/06/20 08:18:25;;;;;;;3.13;0.70;;;29.30;99.90;;;;;;5034475;28;20319;-79
2021/06/20 08:20:50;;;;;;;1.23;0.50;;;30.00;99.90;;;;;;5034712;28;20617;-79
2021/06/20 08:23:16;;;;;;;2.60;0.90;;;29.10;99.90;;;;;;5051026;28;20208;-80
2021/06/20 08:25:43;;;;;;;2.05;1.08;;;29.90;99.90;;;;;;5051136;28;20617;-80
2021/06/20 08:28:08;;;;;;;2.30;0.68;;;30.90;99.90;;;;;;5032593;28;20173;-80
2021/06/20 08:30:34;;;;;;;2.15;0.70;;;32.60;99.90;;;;;;5034328;28;20172;-79
2021/06/20 08:33:00;;;;;;;1.45;0.77;;;34.20;99.90;;;;;;5050927;28;20176;-78
2021/06/20 08:35:27;;;;;;;1.10;0.52;;;35.60;99.90;;;;;;5035960;28;20151;-79
2021/06/20 08:37:52;;;;;;;3.38;0.60;;;36.00;99.90;;;;;;5035302;28;20262;-79
2021/06/20 08:40:18;;;;;;;2.90;0.65;;;35.60;99.70;;;;;;5039673;28;20247;-78
2021/06/20 08:42:44;;;;;;;2.00;0.63;;;35.40;99.70;;;;;;5016183;28;20544;-78
2021/06/20 08:45:13;;;;;;;2.92;0.80;;;35.40;99.90;;;;;;5015478;28;20655;-78
2021/06/20 08:47:41;;;;;;;0.65;0.60;;;35.90;99.30;;;;;;5014477;28;20270;-77
2021/06/20 08:50:08;;;;;;;1.23;0.70;;;35.80;99.90;;;;;;5016857;28;20168;-78
2021/06/20 08:52:34;;;;;;;1.13;0.65;;;35.90;98.70;;;;;;5015462;28;20172;-79
2021/06/20 08:55:01;;;;;;;1.42;0.68;;;34.20;99.90;;;;;;5014256;28;20633;-79
2021/06/20 08:57:35;;;;;;;6.97;1.05;;;31.60;99.90;;;;;;5015647;28;20171;-77
2021/06/20 09:00:03;;;;;;;2.50;0.77;;;30.80;99.90;;;;;;5018471;28;20160;-78
2021/06/20 09:02:30;;;;;;;4.22;0.80;;;30.30;99.90;;;;;;5031119;28;20200;-78
2021/06/20 09:04:58;;;;;;;3.47;0.75;;;29.90;99.90;;;;;;5034456;28;20527;-79
2021/06/20 09:07:41;;;;;;;1.98;0.85;;;29.40;99.90;;;;;;5035091;28;20172;-79
2021/06/20 09:10:22;;;;;;;0.93;0.85;;;29.00;99.90;;;;;;5033413;28;20161;-80
2021/06/20 09:12:56;;;;;;;1.55;0.60;;;30.10;99.90;;;;;;5050267;28;20192;-79
2021/06/20 09:15:25;;;;;;;0.95;0.60;;;31.80;99.90;;;;;;5033475;28;20164;-80
2021/06/20 09:17:52;;;;;;;2.78;0.60;;;30.40;99.90;;;;;;5033564;28;20172;-80
2021/06/20 09:20:18;;;;;;;7.32;0.77;;;31.50;99.90;;;;;;5023301;28;20173;-79
2021/06/20 09:22:55;;;;;;;2.22;0.65;;;31.80;99.90;;;;;;5015801;28;20204;-81
2021/06/20 09:25:25;;;;;;;0.47;0.40;;;32.30;99.90;;;;;;5013706;28;20643;-81
2021/06/20 09:28:00;;;;;;;1.98;0.80;;;33.20;99.90;;;;;;5015065;28;20164;-80
2021/06/20 09:30:29;;;;;;;3.47;0.70;;;34.00;99.90;;;;;;5019369;28;20616;-81
2021/06/20 09:32:59;;;;;;;2.40;0.60;;;34.40;99.50;;;;;;5032727;28;20542;-79
2021/06/20 09:35:26;;;;;;;0.65;0.63;;;32.50;99.90;;;;;;5034646;28;20171;-81
2021/06/20 09:37:55;;;;;;;1.88;0.60;;;32.30;99.90;;;;;;5034387;28;20172;-80
2021/06/20 09:40:25;;;;;;;1.23;0.50;;;33.40;99.90;;;;;;5034520;28;20159;-78
2021/06/20 09:42:51;;;;;;;1.95;0.60;;;32.50;99.90;;;;;;5032306;28;20254;-78
2021/06/20 09:45:31;;;;;;;1.95;0.60;;;33.10;99.90;;;;;;5032950;28;20168;-78
2021/06/20 09:47:58;;;;;;;2.42;0.70;;;33.70;99.90;;;;;;5009820;28;20164;-78
2021/06/20 09:50:41;;;;;;;1.70;0.50;;;35.60;99.50;;;;;;5023105;28;20168;-77
2021/06/20 09:53:07;;;;;;;1.60;0.55;;;35.90;98.40;;;;;;5032566;28;20163;-80
2021/06/20 09:55:34;;;;;;;2.80;0.52;;;35.10;97.70;;;;;;5032852;28;20609;-78
2021/06/20 09:58:01;;;;;;;0.65;0.52;;;35.00;98.40;;;;;;5015022;28;20559;-79
2021/06/20 10:00:42;;;;;;;4.05;0.70;;;35.70;97.60;;;;;;5015189;28;20171;-78
2021/06/20 10:03:20;;;;;;;3.03;0.70;;;35.50;96.90;;;;;;5013955;28;20687;-83
2021/06/20 10:05:47;;;;;;;2.22;0.70;;;34.20;97.30;;;;;;5031000;28;20195;-84
2021/06/20 10:08:13;;;;;;;1.38;0.60;;;32.90;98.50;;;;;;5048501;28;20167;-84
2021/06/20 10:10:38;;;;;;;4.55;0.77;;;32.20;99.90;;;;;;5030875;28;20242;-83
2021/06/20 10:13:04;;;;;;;3.45;0.60;;;31.20;99.90;;;;;;5029207;28;20522;-84
2021/06/20 10:15:30;;;;;;;2.60;0.60;;;31.70;99.90;;;;;;5024882;28;20175;-83
2021/06/20 10:18:00;;;;;;;1.05;0.80;;;31.90;99.90;;;;;;5033511;28;20171;-85
2021/06/20 10:20:32;;;;;;;5.68;1.05;;;33.10;99.90;;;;;;5033036;28;20171;-85
2021/06/20 10:22:58;;;;;;;2.58;0.43;;;34.80;99.30;;;;;;5032383;28;20294;-84
2021/06/20 10:25:32;;;;;;;2.95;0.82;;;36.80;97.10;;;;;;5031841;28;20198;-85
2021/06/20 10:28:12;;;;;;;3.80;0.82;;;37.30;95.00;;;;;;5033774;28;20309;-84
2021/06/20 10:30:37;;;;;;;1.25;0.45;;;37.70;96.00;;;;;;5045707;28;20172;-85
2021/06/20 10:33:26;;;;;;;3.33;0.60;;;37.90;93.20;;;;;;5048345;28;20229;-84
2021/06/20 10:36:18;;;;;;;0.73;0.50;;;36.40;94.10;;;;;;5018088;28;20170;-85
2021/06/20 10:38:46;;;;;;;1.50;0.60;;;34.10;96.50;;;;;;5034146;28;20228;-86
2021/06/20 10:41:26;;;;;;;3.13;0.50;;;34.10;96.20;;;;;;5048232;28;20178;-85
2021/06/20 10:44:00;;;;;;;7.68;0.80;;;33.00;96.20;;;;;;5032221;28;20175;-86
2021/06/20 10:46:26;;;;;;;2.45;0.65;;;31.40;98.30;;;;;;5029762;28;20169;-83
2021/06/20 10:48:52;;;;;;;2.65;0.63;;;30.20;99.10;;;;;;5032100;28;20229;-86
2021/06/20 10:51:20;;;;;;;0.88;0.60;;;31.30;99.00;;;;;;5049047;28;20648;-87
2021/06/20 10:53:46;;;;;;;0.90;0.50;;;33.40;97.70;;;;;;5033217;28;20163;-87
2021/06/20 10:56:23;;;;;;;2.60;0.50;;;34.50;97.40;;;;;;5033394;28;20726;-88
2021/06/20 10:58:51;;;;;;;0.70;0.52;;;35.40;96.10;;;;;;5011783;28;20176;-85
2021/06/20 11:01:18;;;;;;;1.52;0.70;;;36.80;95.30;;;;;;5011506;28;20647;-85
2021/06/20 11:03:59;;;;;;;1.77;0.50;;;38.30;93.70;;;;;;5013179;28;20176;-87
2021/06/20 11:06:26;;;;;;;0.68;0.32;;;39.70;92.80;;;;;;5012425;28;20259;-88
2021/06/20 11:09:08;;;;;;;0.82;0.38;;;40.90;88.80;;;;;;5017256;28;20172;-86
2021/06/20 11:11:50;;;;;;;0.75;0.43;;;39.90;86.30;;;;;;5016457;28;20215;-87
2021/06/20 11:14:16;;;;;;;1.85;0.60;;;37.60;86.70;;;;;;5028308;28;20209;-86
2021/06/20 11:16:44;;;;;;;2.03;0.40;;;35.30;91.80;;;;;;5044844;28;20202;-87
2021/06/20 11:19:17;;;;;;;7.80;0.82;;;34.60;94.20;;;;;;5008768;28;20176;-87
2021/06/20 11:22:01;;;;;;;0.65;0.40;;;35.50;93.10;;;;;;5018974;28;20207;-88
2021/06/20 11:24:36;;;;;;;0.70;0.70;;;35.10;93.30;;;;;;5017963;28;20168;-87
2021/06/20 11:27:07;;;;;;;1.58;0.50;;;36.60;92.20;;;;;;5016435;28;20255;-87
2021/06/20 11:29:57;;;;;;;4.18;0.60;;;37.70;91.00;;;;;;5018006;28;20164;-87
2021/06/20 11:32:32;;;;;;;1.35;0.60;;;38.20;89.80;;;;;;5006775;28;20187;-88
2021/06/20 11:35:05;;;;;;;0.80;0.50;;;37.60;90.10;;;;;;5017725;28;20156;-87
2021/06/20 11:37:38;;;;;;;2.70;0.60;;;37.20;90.70;;;;;;5049413;28;20164;-88
2021/06/20 11:40:07;;;;;;;3.80;0.47;;;37.30;90.70;;;;;;5050997;28;20168;-89
2021/06/20 11:42:36;;;;;;;1.45;0.60;;;38.60;89.40;;;;;;5016437;28;20680;-87
2021/06/20 11:45:08;;;;;;;1.83;0.98;;;39.60;88.30;;;;;;5036141;28;20620;-87
2021/06/20 11:47:38;;;;;;;0.85;0.60;;;40.10;84.80;;;;;;5052102;28;20180;-87
2021/06/20 11:50:15;;;;;;;1.65;0.60;;;39.50;87.50;;;;;;5036931;28;20189;-87
2021/06/20 11:52:46;;;;;;;0.45;0.40;;;39.40;86.30;;;;;;5037000;28;20175;-87
2021/06/20 11:55:20;;;;;;;0.95;0.50;;;38.60;84.20;;;;;;5036800;28;20160;-83
2021/06/20 11:57:47;;;;;;;0.73;0.43;;;37.50;86.50;;;;;;5037127;28;20620;-91
2021/06/20 12:00:17;;;;;;;3.28;0.40;;;37.90;85.20;;;;;;5052575;28;20163;-87
2021/06/20 12:02:44;;;;;;;1.17;0.50;;;38.30;86.10;;;;;;5033685;28;20191;-87
2021/06/20 12:05:19;;;;;;;4.38;0.63;;;37.00;88.10;;;;;;5036778;28;20191;-85
2021/06/20 12:07:44;;;;;;;3.88;0.70;;;35.50;88.20;;;;;;5035141;28;20192;-86
2021/06/20 12:10:14;;;;;;;1.27;0.50;;;35.80;90.90;;;;;;5036891;28;20663;-86
2021/06/20 12:12:42;;;;;;;1.33;0.47;;;35.90;90.20;;;;;;5033384;28;20533;-85
2021/06/20 12:15:08;;;;;;;1.27;0.43;;;35.70;88.70;;;;;;5016874;28;20175;-87
2021/06/20 12:17:33;;;;;;;2.28;0.45;;;36.30;88.30;;;;;;5016882;28;20164;-86
2021/06/20 12:19:59;;;;;;;0.98;0.50;;;35.00;90.60;;;;;;5016186;28;20255;-86
2021/06/20 12:22:26;;;;;;;1.83;0.57;;;34.20;91.30;;;;;;5016893;28;20207;-87
2021/06/20 12:25:00;;;;;;;1.90;0.55;;;33.40;93.00;;;;;;5016442;28;20207;-85
2021/06/20 12:27:34;;;;;;;1.70;0.70;;;32.90;94.20;;;;;;5015125;28;20167;-87
2021/06/20 12:30:21;;;;;;;4.70;0.50;;;32.60;93.50;;;;;;5015388;28;20259;-88
2021/06/20 12:32:49;;;;;;;1.13;0.60;;;32.70;95.40;;;;;;5016686;28;20168;-87
2021/06/20 12:35:27;;;;;;;1.38;0.60;;;32.30;94.80;;;;;;5017048;28;20184;-84
2021/06/20 12:37:58;;;;;;;5.88;0.45;;;32.10;93.40;;;;;;5016455;28;20246;-87
2021/06/20 12:40:31;;;;;;;1.33;0.60;;;32.10;95.20;;;;;;5031599;28;20180;-88